Augusta, Illinois
Current Conditions -  °F | °C
As of 5:54 AM on Sunday 21 Dec 2014 (Local Time) from KUIN Reporting Station
Overcast Overcast  
Wind Chill: 32°   Ceiling: 2000
Heat Index: 37°   Visibility: 7mi
Dew Point: 34°   Wind: 6mph
Humidity: 89%   Direction: 150°SSE
Pressure: 30.15"   Gusts: NA
Location:  40.23°N, 90.95°W
Report Text: KUIN 211154Z AUTO 15005KT 7SM OVC020 03/01 A3015 RMK AO2 SLP217 T00280011 10033 20028 55007
Loading
Personal Weather Stations






























Interactive Weather Map New forecast layout! Learn more

10-Day Weather Forecast

Advertisements
Track Severe Weather on mobile